Time;durP1;ratioP1;P1;durP2;ratioP2;P2;SDS_P1;SDS_P2;PMS_P1;PMS_P2;Temp;Humidity;BMP_temperature;BMP_pressure;BME280_temperature;BME280_humidity;BME280_pressure;Samples;Min_cycle;Max_cycle;Signal;HPM_P1;HPM_P2
2022/01/04 00:00:42;;;;;;;17.85;8.30;;;;;;;5.37;82.63;94395.44;5137263;27;20038;-69
2022/01/04 00:03:08;;;;;;;15.85;9.32;;;;;;;5.38;83.67;94394.25;5137205;27;20023;-68
2022/01/04 00:05:33;;;;;;;17.17;10.00;;;;;;;5.62;81.99;94386.22;5137381;27;20023;-68
2022/01/04 00:08:00;;;;;;;17.33;9.27;;;;;;;5.93;79.57;94385.13;5136358;27;20046;-70
2022/01/04 00:10:28;;;;;;;19.48;9.98;;;;;;;5.52;81.28;94379.38;5136118;27;20031;-68
2022/01/04 00:15:41;;;;;;;21.17;9.52;;;;;;;5.77;80.54;94380.88;5136894;27;20547;-68
2022/01/04 00:18:06;;;;;;;15.90;9.43;;;;;;;5.51;81.55;94375.94;5136823;27;20488;-68
2022/01/04 00:20:32;;;;;;;18.23;9.80;;;;;;;5.70;80.17;94378.53;5136848;27;20061;-69
2022/01/04 00:22:57;;;;;;;18.02;9.60;;;;;;;5.01;82.72;94370.91;5135815;27;20187;-69
2022/01/04 00:25:23;;;;;;;16.15;8.85;;;;;;;5.24;81.81;94382.91;5136051;27;20027;-69
2022/01/04 00:27:48;;;;;;;17.75;9.30;;;;;;;5.51;80.54;94397.47;5136740;27;20027;-69
2022/01/04 00:30:14;;;;;;;16.98;9.05;;;;;;;5.48;79.45;94403.78;5137170;27;20124;-69
2022/01/04 00:32:40;;;;;;;19.92;10.63;;;;;;;4.83;83.81;94400.53;5135568;27;20023;-69
2022/01/04 00:35:06;;;;;;;25.92;11.02;;;;;;;5.02;83.23;94398.56;5136604;27;20022;-69
2022/01/04 00:37:31;;;;;;;17.70;10.07;;;;;;;5.22;82.52;94409.56;5135560;27;20027;-69
2022/01/04 00:39:58;;;;;;;19.38;10.05;;;;;;;5.13;82.98;94408.84;5136510;27;20023;-69
2022/01/04 00:42:23;;;;;;;16.85;8.93;;;;;;;5.14;83.70;94416.44;5136713;27;20023;-69
2022/01/04 00:44:49;;;;;;;19.05;9.02;;;;;;;5.35;82.09;94419.38;5136402;27;20128;-69
2022/01/04 00:47:15;;;;;;;14.77;8.00;;;;;;;5.23;82.46;94419.09;5136326;27;20015;-69
2022/01/04 00:49:41;;;;;;;13.98;8.05;;;;;;;5.62;80.47;94420.44;5136200;27;20020;-69
2022/01/04 00:52:07;;;;;;;15.07;7.82;;;;;;;5.47;80.61;94421.13;5136433;27;20034;-69
2022/01/04 00:54:34;;;;;;;13.52;8.45;;;;;;;5.55;81.23;94408.81;5136122;27;20044;-69
2022/01/04 00:56:59;;;;;;;12.35;8.02;;;;;;;5.37;81.05;94404.28;5135964;27;20043;-69
2022/01/04 00:59:25;;;;;;;15.02;9.05;;;;;;;5.39;82.47;94401.13;5136414;27;20030;-68
2022/01/04 01:01:50;;;;;;;14.88;8.43;;;;;;;5.37;81.89;94390.81;5136008;27;20103;-68
2022/01/04 01:04:16;;;;;;;14.00;8.35;;;;;;;5.23;82.25;94391.44;5136250;27;20019;-69
2022/01/04 01:06:41;;;;;;;14.75;8.93;;;;;;;5.36;81.58;94394.69;5135984;27;20027;-69
2022/01/04 01:09:07;;;;;;;17.85;9.38;;;;;;;5.16;82.95;94381.75;5135962;27;20072;-69
2022/01/04 01:11:32;;;;;;;19.10;10.25;;;;;;;5.09;83.50;94382.09;5136005;27;20360;-69
2022/01/04 01:13:58;;;;;;;17.88;10.63;;;;;;;4.93;85.13;94374.38;5135814;27;20053;-69
2022/01/04 01:16:24;;;;;;;16.42;9.18;;;;;;;4.90;84.48;94382.13;5134804;27;20031;-69
2022/01/04 01:18:49;;;;;;;17.25;9.45;;;;;;;4.82;85.03;94375.56;5135788;27;20029;-69
2022/01/04 01:21:15;;;;;;;13.40;7.72;;;;;;;4.77;85.72;94383.50;5135677;27;20512;-69
2022/01/04 01:23:41;;;;;;;14.55;8.55;;;;;;;4.70;86.23;94379.94;5135888;27;20019;-69
2022/01/04 01:26:08;;;;;;;14.30;8.45;;;;;;;4.87;85.13;94371.53;5134648;27;20027;-69
2022/01/04 01:28:35;;;;;;;16.13;8.88;;;;;;;4.51;87.14;94376.53;5135492;27;20055;-69
2022/01/04 01:31:01;;;;;;;15.02;8.02;;;;;;;4.59;85.97;94374.28;5134730;27;20394;-68
2022/01/04 01:33:27;;;;;;;12.75;7.40;;;;;;;4.74;86.31;94364.41;5135600;27;20019;-69
2022/01/04 01:35:57;;;;;;;12.18;6.85;;;;;;;4.86;85.00;94370.78;5135937;27;20102;-69
2022/01/04 01:38:23;;;;;;;16.13;6.93;;;;;;;4.80;84.43;94367.22;5135381;27;20023;-69
2022/01/04 01:40:51;;;;;;;12.05;7.07;;;;;;;4.83;85.44;94370.97;5135277;27;20027;-69
2022/01/04 01:43:17;;;;;;;15.65;8.27;;;;;;;4.54;87.18;94361.44;5135524;27;20054;-68
2022/01/04 01:45:43;;;;;;;17.10;8.52;;;;;;;4.31;89.62;94376.22;5135267;27;20037;-68
2022/01/04 01:48:08;;;;;;;14.15;7.75;;;;;;;4.69;86.14;94377.69;5135703;27;20023;-69
2022/01/04 01:50:34;;;;;;;14.63;8.68;;;;;;;4.29;87.94;94386.69;5135124;27;20027;-68
2022/01/04 01:53:00;;;;;;;11.80;7.85;;;;;;;4.56;87.38;94381.28;5134010;27;20095;-69
2022/01/04 01:55:26;;;;;;;15.75;8.80;;;;;;;4.22;87.00;94380.41;5135325;27;20367;-68
2022/01/04 01:57:53;;;;;;;14.30;8.00;;;;;;;4.10;90.13;94378.63;5134870;27;20479;-68
2022/01/04 02:00:22;;;;;;;12.65;7.82;;;;;;;4.44;87.67;94381.47;5134928;27;20473;-68
2022/01/04 02:02:47;;;;;;;15.43;8.20;;;;;;;4.27;87.18;94381.00;5134907;27;20015;-68
2022/01/04 02:05:13;;;;;;;15.85;8.25;;;;;;;4.01;89.41;94370.59;5134861;27;20347;-69
2022/01/04 02:07:41;;;;;;;14.10;8.70;;;;;;;3.84;90.40;94381.56;5133798;27;20395;-69
2022/01/04 02:10:08;;;;;;;17.15;9.45;;;;;;;4.45;88.24;94385.66;5134783;27;20034;-69
2022/01/04 02:12:40;;;;;;;15.05;9.25;;;;;;;4.25;89.15;94375.34;5134692;27;20399;-69
2022/01/04 02:15:06;;;;;;;;;;;;;;;3.95;94.52;94372.34;5135182;27;20023;-68
2022/01/04 02:17:33;;;;;;;25.13;11.45;;;;;;;4.59;89.38;94366.22;5135015;27;19960;-68
2022/01/04 02:19:59;;;;;;;27.42;12.90;;;;;;;4.55;89.91;94376.38;5134828;27;20027;-69
2022/01/04 02:22:26;;;;;;;28.00;16.23;;;;;;;4.33;93.25;94374.59;5134569;27;20034;-69
2022/01/04 02:24:52;;;;;;;29.13;16.35;;;;;;;4.29;94.14;94373.25;5134455;27;20369;-68
2022/01/04 02:27:18;;;;;;;30.83;18.10;;;;;;;4.39;95.78;94369.38;5134727;27;20111;-69
2022/01/04 02:29:44;;;;;;;28.70;16.45;;;;;;;4.64;94.02;94376.38;5133430;27;20023;-69
2022/01/04 02:32:10;;;;;;;31.45;15.95;;;;;;;4.62;91.87;94378.00;5134518;27;20019;-69
2022/01/04 02:34:36;;;;;;;25.02;12.77;;;;;;;4.26;92.67;94366.09;5134313;27;20019;-68
2022/01/04 02:37:02;;;;;;;24.45;13.90;;;;;;;4.53;91.44;94376.81;5134331;27;20353;-69
2022/01/04 02:39:28;;;;;;;20.58;11.65;;;;;;;4.16;91.76;94376.84;5134484;27;20027;-68
2022/01/04 02:41:53;;;;;;;22.08;11.07;;;;;;;4.02;93.65;94372.81;5134599;27;20038;-69
2022/01/04 02:44:19;;;;;;;23.52;13.52;;;;;;;4.22;94.20;94366.97;5134015;27;20034;-68
2022/01/04 02:46:44;;;;;;;20.23;11.32;;;;;;;4.19;93.02;94365.19;5133949;27;20025;-68
2022/01/04 02:49:10;;;;;;;20.20;11.93;;;;;;;4.00;93.69;94359.06;5134130;27;20152;-68
2022/01/04 02:51:35;;;;;;;24.85;13.15;;;;;;;3.84;96.69;94359.38;5134029;27;20395;-68
2022/01/04 02:54:01;;;;;;;24.60;14.82;;;;;;;4.03;97.10;94360.13;5132883;27;20023;-68
2022/01/04 02:56:26;;;;;;;24.23;13.10;;;;;;;3.82;96.15;94357.13;5132865;27;20043;-68
2022/01/04 02:58:52;;;;;;;23.98;12.98;;;;;;;3.88;96.22;94344.59;5134023;27;20118;-68
2022/01/04 03:01:18;;;;;;;25.13;12.55;;;;;;;3.81;96.69;94350.25;5133924;27;20213;-68
2022/01/04 03:03:43;;;;;;;20.58;11.80;;;;;;;3.93;96.45;94339.81;5133961;27;20392;-68
2022/01/04 03:06:15;;;;;;;16.75;10.48;;;;;;;3.94;93.30;94344.00;5134416;27;20061;-68
2022/01/04 03:08:40;;;;;;;15.45;8.93;;;;;;;3.77;94.47;94336.22;5134015;27;20027;-68
2022/01/04 03:11:06;;;;;;;12.77;7.35;;;;;;;3.77;94.65;94340.88;5134119;27;20114;-68
2022/01/04 03:13:31;;;;;;;20.75;10.07;;;;;;;3.82;95.32;94332.22;5133782;27;20087;-69
2022/01/04 03:15:57;;;;;;;23.17;11.10;;;;;;;3.74;94.79;94331.75;5134095;27;20057;-68
2022/01/04 03:18:22;;;;;;;22.77;12.43;;;;;;;4.16;94.04;94344.63;5134079;27;20050;-69
2022/01/04 03:20:48;;;;;;;18.60;10.73;;;;;;;4.07;93.10;94347.28;5133773;27;20035;-69
2022/01/04 03:23:13;;;;;;;22.95;9.25;;;;;;;4.40;89.48;94346.69;5134093;27;20019;-69
2022/01/04 03:25:40;;;;;;;14.63;8.55;;;;;;;3.69;92.64;94349.19;5133753;27;20060;-68
2022/01/04 03:28:06;;;;;;;15.73;8.88;;;;;;;3.58;93.59;94345.47;5133711;27;20079;-68
2022/01/04 03:30:32;;;;;;;19.23;9.63;;;;;;;3.61;93.37;94336.50;5134188;27;20027;-68
2022/01/04 03:32:57;;;;;;;23.33;11.63;;;;;;;3.55;95.14;94342.47;5133789;27;20160;-68
2022/01/04 03:35:23;;;;;;;30.55;15.35;;;;;;;3.61;97.34;94347.25;5133677;27;20038;-68
2022/01/04 03:37:50;;;;;;;28.13;15.23;;;;;;;3.85;96.06;94350.13;5133965;27;20428;-68
2022/01/04 03:40:15;;;;;;;32.67;16.17;;;;;;;3.85;96.31;94358.91;5133637;27;20114;-68
2022/01/04 03:42:41;;;;;;;28.20;15.07;;;;;;;3.80;97.14;94362.19;5132713;27;20106;-68
2022/01/04 03:45:07;;;;;;;29.08;15.65;;;;;;;3.58;99.27;94366.94;5133805;27;20030;-68
2022/01/04 03:47:33;;;;;;;24.98;14.20;;;;;;;3.65;98.76;94367.38;5133734;27;20041;-69
2022/01/04 03:49:58;;;;;;;22.58;12.48;;;;;;;3.75;97.18;94362.78;5133538;27;20023;-68
2022/01/04 03:52:24;;;;;;;20.40;12.35;;;;;;;3.79;96.50;94363.41;5132324;28;20019;-67
2022/01/04 03:54:49;;;;;;;21.38;11.70;;;;;;;4.17;92.92;94364.91;5132445;27;20088;-67
2022/01/04 03:57:15;;;;;;;23.77;12.23;;;;;;;4.04;92.75;94361.63;5134149;27;20046;-67
2022/01/04 03:59:40;;;;;;;18.67;9.82;;;;;;;3.81;93.83;94352.94;5137231;27;20034;-69
2022/01/04 04:02:06;;;;;;;15.27;9.48;;;;;;;3.78;94.05;94363.84;5137248;27;20048;-69
2022/01/04 04:04:32;;;;;;;19.08;9.27;;;;;;;3.53;95.39;94352.91;5137218;27;20087;-69
2022/01/04 04:06:57;;;;;;;16.45;9.50;;;;;;;3.63;95.18;94348.31;5137469;27;20556;-69
2022/01/04 04:09:23;;;;;;;18.20;9.82;;;;;;;3.50;95.60;94350.34;5137084;27;20047;-69
2022/01/04 04:11:48;;;;;;;14.95;8.40;;;;;;;3.59;95.74;94353.06;5137252;27;20034;-68
2022/01/04 04:14:14;;;;;;;19.50;7.65;;;;;;;3.50;94.82;94351.09;5137279;27;20027;-69
2022/01/04 04:16:39;;;;;;;18.20;9.65;;;;;;;3.49;96.29;94363.03;5136911;27;20023;-68
2022/01/04 04:19:05;;;;;;;24.65;10.55;;;;;;;3.66;96.00;94360.09;5137149;27;20102;-69
2022/01/04 04:21:31;;;;;;;17.52;9.00;;;;;;;3.70;94.63;94345.31;5137078;27;20102;-69
2022/01/04 04:23:56;;;;;;;12.52;7.90;;;;;;;3.64;92.29;94347.13;5136734;27;20122;-68
2022/01/04 04:26:22;;;;;;;26.38;12.90;;;;;;;3.31;94.69;94352.25;5137008;27;20038;-68
2022/01/04 04:28:48;;;;;;;20.13;9.95;;;;;;;3.39;93.09;94361.50;5136729;27;20095;-68
2022/01/04 04:31:13;;;;;;;18.15;7.65;;;;;;;3.09;94.59;94363.78;5136941;27;20061;-68
2022/01/04 04:33:39;;;;;;;16.48;7.22;;;;;;;3.34;93.59;94364.75;5137093;27;20053;-68
2022/01/04 04:36:04;;;;;;;18.38;8.23;;;;;;;3.77;90.81;94373.81;5136633;27;20060;-68
2022/01/04 04:38:30;;;;;;;22.83;8.98;;;;;;;3.79;90.56;94374.13;5136610;27;20054;-68
2022/01/04 04:40:55;;;;;;;15.43;8.30;;;;;;;3.87;89.43;94378.03;5136827;27;20038;-68
2022/01/04 04:43:21;;;;;;;17.08;9.13;;;;;;;3.89;88.34;94380.25;5135447;27;20103;-68
2022/01/04 04:45:47;;;;;;;22.23;9.65;;;;;;;3.53;89.64;94392.41;5136388;27;20301;-69
2022/01/04 04:48:12;;;;;;;17.60;11.15;;;;;;;3.76;89.70;94393.06;5136318;27;20027;-69
2022/01/04 04:50:38;;;;;;;26.23;12.63;;;;;;;3.66;91.09;94392.31;5136321;27;20472;-68
2022/01/04 04:53:04;;;;;;;24.48;13.02;;;;;;;3.25;95.55;94389.63;5136213;27;20113;-68
2022/01/04 04:55:30;;;;;;;21.13;12.32;;;;;;;3.33;95.40;94379.38;5136256;27;20447;-68
2022/01/04 04:57:56;;;;;;;30.83;16.02;;;;;;;3.31;95.93;94379.06;5136001;27;20111;-68
2022/01/04 05:00:22;;;;;;;32.28;19.58;;;;;;;3.25;96.73;94388.91;5136553;27;20405;-68
2022/01/04 05:02:47;;;;;;;34.15;19.33;;;;;;;2.91;99.47;94385.91;5136153;27;20023;-68
2022/01/04 05:05:13;;;;;;;28.42;15.85;;;;;;;3.06;99.09;94383.44;5135998;27;20103;-68
2022/01/04 05:07:38;;;;;;;26.35;14.75;;;;;;;3.03;99.21;94389.69;5134702;27;20482;-68
2022/01/04 05:10:06;;;;;;;25.33;13.43;;;;;;;3.04;98.86;94385.81;5135811;27;20027;-67
2022/01/04 05:12:32;;;;;;;22.55;12.05;;;;;;;2.85;99.67;94387.66;5136532;27;20526;-68
2022/01/04 05:14:58;;;;;;;21.98;13.52;;;;;;;2.80;100.00;94380.94;5135755;27;20168;-68
2022/01/04 05:17:23;;;;;;;25.20;13.10;;;;;;;2.57;100.00;94390.19;5135694;27;20447;-67
2022/01/04 05:19:49;;;;;;;26.48;13.15;;;;;;;2.62;100.00;94384.25;5135616;27;20379;-67
2022/01/04 05:22:14;;;;;;;32.75;14.18;;;;;;;2.66;100.00;94378.78;5135627;27;20432;-67
2022/01/04 05:24:40;;;;;;;25.88;14.18;;;;;;;2.80;100.00;94375.56;5134489;27;20467;-67
2022/01/04 05:27:05;;;;;;;25.42;14.00;;;;;;;2.75;100.00;94370.78;5135613;27;20038;-68
2022/01/04 05:29:31;;;;;;;28.80;14.95;;;;;;;2.75;100.00;94368.09;5135522;27;20493;-68
2022/01/04 05:31:57;;;;;;;28.38;16.55;;;;;;;2.53;100.00;94370.78;5134390;27;20096;-68
2022/01/04 05:34:23;;;;;;;37.33;16.52;;;;;;;2.69;100.00;94383.25;5135309;27;20056;-68
2022/01/04 05:36:49;;;;;;;27.17;14.32;;;;;;;1.95;100.00;94377.34;5135223;27;20472;-68
2022/01/04 05:39:14;;;;;;;23.23;12.38;;;;;;;1.17;100.00;94372.16;5135146;27;20066;-68
2022/01/04 05:41:40;;;;;;;38.03;25.25;;;;;;;1.51;100.00;94372.63;5135468;27;20110;-68
2022/01/04 05:44:06;;;;;;;36.17;21.90;;;;;;;1.96;100.00;94381.53;5134000;27;20030;-67
2022/01/04 05:46:31;;;;;;;28.20;15.25;;;;;;;2.04;100.00;94377.44;5133973;27;20023;-69
2022/01/04 05:48:57;;;;;;;25.02;14.07;;;;;;;2.35;100.00;94376.78;5134867;27;20102;-68
2022/01/04 05:51:22;;;;;;;20.13;11.05;;;;;;;2.41;100.00;94364.31;5135141;27;20083;-68
2022/01/04 05:53:48;;;;;;;19.90;10.80;;;;;;;2.48;100.00;94374.03;5134797;27;20038;-68
2022/01/04 05:56:13;;;;;;;23.90;10.93;;;;;;;2.53;100.00;94365.44;5134665;27;20399;-68
2022/01/04 05:58:39;;;;;;;22.77;11.65;;;;;;;2.57;100.00;94362.63;5135121;27;20515;-68
2022/01/04 06:01:04;;;;;;;20.50;11.50;;;;;;;2.59;100.00;94362.94;5134797;27;20031;-68
2022/01/04 06:03:30;;;;;;;25.38;9.82;;;;;;;2.65;100.00;94361.94;5134620;27;20023;-68
2022/01/04 06:05:56;;;;;;;25.67;10.85;;;;;;;2.50;100.00;94366.31;5134693;27;20168;-68
2022/01/04 06:08:22;;;;;;;31.67;10.82;;;;;;;2.64;100.00;94365.06;5134612;27;20027;-68
2022/01/04 06:10:51;;;;;;;28.55;10.63;;;;;;;2.66;100.00;94368.06;5134610;27;20027;-68
2022/01/04 06:16:01;;;;;;;29.73;11.80;;;;;;;2.72;100.00;94368.25;5135157;27;20364;-68
2022/01/04 06:18:27;;;;;;;25.45;12.63;;;;;;;2.87;100.00;94369.94;5134411;27;20023;-69
2022/01/04 06:20:55;;;;;;;23.48;11.80;;;;;;;2.96;99.98;94368.50;5133581;27;20118;-68
2022/01/04 06:23:20;;;;;;;23.77;12.40;;;;;;;2.87;100.00;94369.19;5134345;27;20081;-68
2022/01/04 06:25:46;;;;;;;24.95;12.55;;;;;;;3.13;99.38;94369.75;5134364;27;20031;-68
2022/01/04 06:28:11;;;;;;;24.92;11.70;;;;;;;2.98;99.34;94363.44;5134219;27;20027;-68
2022/01/04 06:30:37;;;;;;;33.53;13.80;;;;;;;2.15;100.00;94364.41;5134238;27;20026;-68
2022/01/04 06:33:02;;;;;;;35.28;16.70;;;;;;;1.73;100.00;94351.28;5134205;27;20030;-68
2022/01/04 06:35:29;;;;;;;33.65;16.35;;;;;;;2.01;100.00;94359.56;5134190;27;20369;-68
2022/01/04 06:37:55;;;;;;;32.70;15.57;;;;;;;1.91;100.00;94352.63;5134349;27;20087;-69
2022/01/04 06:40:21;;;;;;;24.48;15.52;;;;;;;2.12;100.00;94354.59;5134083;27;20031;-69
2022/01/04 06:42:46;;;;;;;34.90;19.48;;;;;;;1.77;100.00;94359.97;5134577;27;20076;-69
2022/01/04 06:45:13;;;;;;;40.45;20.23;;;;;;;2.13;100.00;94353.41;5134411;27;20027;-69
2022/01/04 06:47:39;;;;;;;31.90;17.95;;;;;;;2.40;100.00;94346.00;5134269;27;20027;-68
2022/01/04 06:50:06;;;;;;;33.15;16.40;;;;;;;2.62;100.00;94354.00;5133958;27;20027;-68
2022/01/04 06:52:31;;;;;;;35.53;15.73;;;;;;;2.85;100.00;94360.84;5134121;27;20175;-68
2022/01/04 06:54:57;;;;;;;24.63;15.30;;;;;;;2.54;100.00;94356.97;5134119;27;20458;-69
2022/01/04 06:57:22;;;;;;;35.90;15.52;;;;;;;2.72;100.00;94355.56;5133737;27;20079;-69
2022/01/04 06:59:48;;;;;;;46.33;24.42;;;;;;;2.89;100.00;94364.16;5133922;27;20080;-69
2022/01/04 07:02:13;;;;;;;76.20;43.30;;;;;;;2.87;100.00;94361.91;5134162;27;20061;-69
2022/01/04 07:04:39;;;;;;;58.28;30.75;;;;;;;3.08;100.00;94370.34;5134460;27;20031;-69
2022/01/04 07:07:04;;;;;;;41.40;23.42;;;;;;;3.32;100.00;94367.88;5133119;27;20507;-68
2022/01/04 07:09:30;;;;;;;41.75;23.20;;;;;;;3.42;100.00;94365.97;5133945;27;20115;-68
2022/01/04 07:11:57;;;;;;;50.95;25.50;;;;;;;3.40;100.00;94373.75;5134128;27;20108;-69
2022/01/04 07:14:23;;;;;;;45.03;24.30;;;;;;;3.35;100.00;94360.91;5134173;27;20050;-69
2022/01/04 07:16:48;;;;;;;40.33;21.65;;;;;;;3.57;100.00;94371.53;5133618;27;20443;-68
2022/01/04 07:19:15;;;;;;;43.38;23.08;;;;;;;3.82;98.49;94365.19;5132420;27;20027;-69
2022/01/04 07:21:41;;;;;;;47.15;21.52;;;;;;;4.01;98.46;94373.28;5133491;27;20027;-68
2022/01/04 07:24:06;;;;;;;38.38;21.48;;;;;;;4.22;95.90;94364.28;5134032;27;20019;-69
2022/01/04 07:26:32;;;;;;;40.17;20.25;;;;;;;4.49;94.75;94365.47;5133596;27;20035;-68
2022/01/04 07:28:57;;;;;;;64.95;22.38;;;;;;;4.62;95.10;94375.31;5133530;27;20075;-69
2022/01/04 07:31:24;;;;;;;41.47;21.05;;;;;;;5.00;91.37;94364.00;5134677;27;20450;-69
2022/01/04 07:33:49;;;;;;;50.10;22.77;;;;;;;4.91;91.52;94367.50;5137610;27;20037;-69
2022/01/04 07:36:15;;;;;;;43.50;24.33;;;;;;;4.88;91.61;94368.41;5137869;27;20019;-69
2022/01/04 07:38:42;;;;;;;51.20;24.75;;;;;;;5.19;89.13;94375.47;5137647;27;20022;-69
2022/01/04 07:41:08;;;;;;;58.70;25.83;;;;;;;5.27;88.77;94370.50;5137524;27;20048;-68
2022/01/04 07:43:34;;;;;;;62.03;25.77;;;;;;;5.63;86.75;94368.84;5137785;27;20030;-69
2022/01/04 07:46:00;;;;;;;45.42;24.83;;;;;;;5.62;86.08;94377.38;5138009;27;20031;-68
2022/01/04 07:48:25;;;;;;;54.72;27.00;;;;;;;5.41;87.73;94369.84;5136681;27;20023;-69
2022/01/04 07:50:55;;;;;;;51.63;29.13;;;;;;;5.68;86.10;94357.44;5137329;27;20378;-70
2022/01/04 07:53:22;;;;;;;60.00;29.65;;;;;;;5.82;85.68;94369.50;5136862;27;20023;-71
2022/01/04 07:55:48;;;;;;;60.90;31.00;;;;;;;5.86;83.82;94380.84;5136915;27;20027;-69
2022/01/04 07:58:13;;;;;;;64.35;32.25;;;;;;;5.88;82.97;94378.41;5137763;27;20023;-68
2022/01/04 08:00:39;;;;;;;58.38;31.33;;;;;;;5.98;82.72;94378.41;5136931;27;20042;-69
2022/01/04 08:03:06;;;;;;;57.55;33.95;;;;;;;6.10;82.47;94377.41;5137014;27;20026;-69
2022/01/04 08:05:32;;;;;;;64.03;34.90;;;;;;;5.87;83.98;94376.91;5135986;27;20050;-68
2022/01/04 08:07:58;;;;;;;65.85;34.15;;;;;;;6.29;81.12;94377.28;5135925;27;20436;-68
2022/01/04 08:10:23;;;;;;;71.22;36.45;;;;;;;6.46;80.15;94377.59;5137139;27;20027;-68
2022/01/04 08:12:49;;;;;;;68.22;37.20;;;;;;;6.69;78.96;94370.63;5136801;27;20023;-69
2022/01/04 08:15:14;;;;;;;75.25;37.20;;;;;;;7.10;77.92;94365.41;5137248;27;20030;-70
2022/01/04 08:17:40;;;;;;;67.28;37.00;;;;;;;7.15;77.37;94355.94;5137189;27;20058;-69
2022/01/04 08:20:07;;;;;;;75.03;37.78;;;;;;;7.14;76.96;94360.56;5136877;27;20103;-71
2022/01/04 08:22:34;;;;;;;69.57;36.92;;;;;;;7.46;75.56;94368.91;5136765;27;20081;-71
2022/01/04 08:25:02;;;;;;;65.95;37.95;;;;;;;7.56;73.82;94364.84;5136713;27;20110;-69
2022/01/04 08:27:28;;;;;;;77.15;39.28;;;;;;;7.69;73.47;94366.50;5135552;27;20097;-69
2022/01/04 08:29:54;;;;;;;78.70;38.97;;;;;;;7.70;73.09;94365.28;5136992;27;20023;-69
2022/01/04 08:32:20;;;;;;;76.32;44.15;;;;;;;7.58;74.71;94367.84;5136320;27;20034;-70
2022/01/04 08:34:46;;;;;;;75.25;41.60;;;;;;;7.59;74.61;94360.47;5136783;27;20023;-70
2022/01/04 08:37:11;;;;;;;77.55;41.83;;;;;;;7.87;72.40;94363.56;5136497;27;20038;-70
2022/01/04 08:39:37;;;;;;;82.15;43.55;;;;;;;7.55;73.10;94363.41;5136713;27;20019;-70
2022/01/04 08:42:03;;;;;;;76.50;43.63;;;;;;;7.11;75.84;94345.31;5136406;27;20087;-70
2022/01/04 08:44:30;;;;;;;86.03;42.22;;;;;;;6.94;78.43;94335.00;5135585;27;20027;-70
2022/01/04 08:46:56;;;;;;;90.53;45.13;;;;;;;7.72;74.00;94349.38;5136310;27;20019;-69
2022/01/04 08:49:21;;;;;;;96.47;48.28;;;;;;;7.61;74.55;94341.88;5136252;27;20387;-70
2022/01/04 08:51:47;;;;;;;85.78;44.90;;;;;;;8.11;72.08;94344.44;5136399;27;20022;-70
2022/01/04 08:54:14;;;;;;;76.45;43.78;;;;;;;7.91;71.70;94347.88;5136364;27;20387;-70
2022/01/04 08:56:40;;;;;;;66.75;39.85;;;;;;;7.41;74.53;94351.41;5135855;27;20077;-67
2022/01/04 08:59:08;;;;;;;76.20;42.03;;;;;;;7.66;73.69;94353.94;5135897;27;20025;-69
2022/01/04 09:01:34;;;;;;;81.18;41.95;;;;;;;7.84;73.60;94359.09;5135760;27;20023;-69
2022/01/04 09:04:01;;;;;;;73.65;38.75;;;;;;;7.59;72.40;94358.53;5135663;27;20031;-69
2022/01/04 09:06:27;;;;;;;64.93;36.90;;;;;;;8.35;69.17;94356.25;5135802;27;20098;-69
2022/01/04 09:08:55;;;;;;;61.85;35.83;;;;;;;8.58;68.75;94347.16;5135791;27;20079;-69
2022/01/04 09:11:21;;;;;;;57.70;34.80;;;;;;;8.56;66.92;94349.63;5134690;27;20019;-69
2022/01/04 09:13:48;;;;;;;56.60;29.38;;;;;;;8.21;67.56;94345.03;5136040;27;20026;-69
2022/01/04 09:18:43;;;;;;;46.45;28.05;;;;;;;9.91;62.45;94342.91;5135909;27;20065;-69
2022/01/04 09:21:29;;;;;;;54.75;31.05;;;;;;;9.76;61.72;94341.16;5134831;27;20383;-69
2022/01/04 09:23:59;;;;;;;53.55;27.42;;;;;;;10.72;58.71;94334.56;5135253;27;20027;-69
2022/01/04 09:26:26;;;;;;;47.15;24.85;;;;;;;11.38;56.34;94334.31;5135354;27;20039;-69
2022/01/04 09:28:53;;;;;;;38.80;25.85;;;;;;;11.97;54.00;94322.34;5135625;27;20019;-69
2022/01/04 09:31:23;;;;;;;43.45;26.10;;;;;;;11.34;55.21;94310.13;5135386;27;20392;-69
2022/01/04 09:33:51;;;;;;;40.63;26.33;;;;;;;12.46;51.86;94305.56;5134114;27;20034;-69
2022/01/04 09:36:16;;;;;;;51.55;27.77;;;;;;;12.29;53.02;94297.47;5135121;27;20029;-69
2022/01/04 09:38:42;;;;;;;40.55;24.92;;;;;;;13.27;50.52;94304.47;5135407;27;20023;-68
2022/01/04 09:41:07;;;;;;;44.10;25.40;;;;;;;13.24;49.70;94294.59;5135234;27;20015;-69
2022/01/04 09:43:33;;;;;;;45.38;26.30;;;;;;;14.45;46.00;94292.75;5135138;27;20023;-68
2022/01/04 09:46:00;;;;;;;40.67;24.15;;;;;;;14.76;45.88;94285.88;5135319;27;20023;-69
2022/01/04 09:48:26;;;;;;;41.30;24.92;;;;;;;16.36;42.16;94281.78;5135226;27;20046;-68
2022/01/04 09:50:54;;;;;;;38.75;26.08;;;;;;;15.77;43.03;94287.44;5135499;27;20577;-68
2022/01/04 09:53:21;;;;;;;44.55;26.65;;;;;;;16.01;42.59;94281.75;5135090;27;20019;-69
2022/01/04 09:55:55;;;;;;;40.95;25.90;;;;;;;16.07;41.74;94276.16;5135460;27;20027;-68
2022/01/04 09:58:26;;;;;;;38.38;22.70;;;;;;;16.24;41.24;94270.34;5134749;27;20035;-68
2022/01/04 10:00:52;;;;;;;40.15;21.95;;;;;;;16.52;39.71;94263.53;5135081;27;20375;-69
2022/01/04 10:03:22;;;;;;;32.38;20.05;;;;;;;16.80;39.32;94251.22;5133559;27;20492;-69
2022/01/04 10:05:48;;;;;;;28.73;20.33;;;;;;;17.45;37.53;94256.13;5134590;27;20110;-68
2022/01/04 10:08:15;;;;;;;29.42;19.00;;;;;;;17.16;37.60;94247.88;5134587;27;20031;-67
2022/01/04 10:10:42;;;;;;;31.70;21.48;;;;;;;16.69;38.57;94231.00;5133781;27;20399;-68
2022/01/04 10:13:14;;;;;;;31.80;21.35;;;;;;;17.65;37.41;94230.63;5134251;27;20031;-69
2022/01/04 10:15:42;;;;;;;35.70;24.05;;;;;;;16.38;38.86;94229.97;5133474;27;20031;-68
2022/01/04 10:18:13;;;;;;;31.70;23.05;;;;;;;17.47;37.68;94226.16;5133548;27;20052;-68
2022/01/04 10:20:40;;;;;;;39.25;22.90;;;;;;;17.94;36.40;94227.88;5134988;27;20205;-68
2022/01/04 10:23:14;;;;;;;38.03;22.85;;;;;;;16.69;38.24;94220.06;5134413;27;20027;-68
2022/01/04 10:25:40;;;;;;;35.75;22.25;;;;;;;17.61;36.14;94219.28;5134761;27;20019;-67
2022/01/04 10:28:06;;;;;;;32.90;21.50;;;;;;;18.65;34.77;94215.81;5134219;27;20023;-67
2022/01/04 10:30:43;;;;;;;30.42;22.15;;;;;;;19.00;33.81;94210.75;5134138;27;20387;-67
2022/01/04 10:33:12;;;;;;;35.40;22.33;;;;;;;18.16;35.31;94206.53;5134543;27;20111;-68
2022/01/04 10:35:41;;;;;;;35.67;22.33;;;;;;;16.58;37.84;94190.19;5134505;27;20124;-68
2022/01/04 10:38:12;;;;;;;50.65;24.98;;;;;;;18.27;35.08;94192.50;5134739;27;20382;-68
2022/01/04 10:40:39;;;;;;;37.30;26.38;;;;;;;14.93;41.60;94181.81;5134397;27;20027;-68
2022/01/04 10:43:19;;;;;;;41.90;25.15;;;;;;;16.49;37.89;94180.44;5134110;27;20112;-68
2022/01/04 10:45:46;;;;;;;36.38;22.52;;;;;;;15.22;40.61;94176.59;5134428;27;20057;-68
2022/01/04 10:48:21;;;;;;;42.28;25.33;;;;;;;15.95;39.66;94184.63;5133945;27;20023;-68
2022/01/04 10:51:05;;;;;;;51.03;24.27;;;;;;;16.34;38.55;94181.03;5133552;27;20433;-68
2022/01/04 10:53:40;;;;;;;33.47;20.80;;;;;;;13.76;43.23;94166.69;5134110;27;20056;-68
2022/01/04 10:56:09;;;;;;;39.67;21.80;;;;;;;14.39;42.86;94172.00;5133953;27;20023;-68
2022/01/04 10:58:39;;;;;;;45.53;22.63;;;;;;;13.59;43.92;94164.88;5134190;27;20487;-68
2022/01/04 11:01:08;;;;;;;39.75;22.52;;;;;;;13.89;43.51;94161.28;5134020;27;20030;-68
2022/01/04 11:03:37;;;;;;;46.53;20.80;;;;;;;13.92;43.63;94157.53;5134033;27;20046;-68
2022/01/04 11:06:06;;;;;;;29.23;18.75;;;;;;;13.71;43.78;94156.59;5133804;27;20034;-68
2022/01/04 11:08:32;;;;;;;24.38;16.52;;;;;;;13.48;43.45;94159.56;5133784;27;20027;-68
2022/01/04 11:10:59;;;;;;;26.40;17.08;;;;;;;13.18;44.71;94160.38;5134254;27;20038;-68
2022/01/04 11:13:25;;;;;;;23.08;16.58;;;;;;;12.90;46.00;94158.69;5134177;27;20045;-68
2022/01/04 11:15:51;;;;;;;27.70;17.55;;;;;;;12.46;46.90;94149.69;5133763;27;20115;-68
2022/01/04 11:18:17;;;;;;;33.78;19.35;;;;;;;11.42;49.13;94136.47;5133546;27;20027;-68
2022/01/04 11:20:44;;;;;;;30.35;20.73;;;;;;;11.72;49.22;94146.72;5133614;27;20038;-68
2022/01/04 11:23:11;;;;;;;34.47;22.38;;;;;;;12.15;48.33;94143.50;5132625;28;20046;-68
2022/01/04 11:25:36;;;;;;;33.83;20.90;;;;;;;12.28;48.43;94137.47;5133562;27;20019;-68
2022/01/04 11:28:03;;;;;;;31.45;16.88;;;;;;;11.80;49.38;94134.06;5133862;27;20038;-68